Terminal Aerodrome Forecast
Issued by NWS Indianapolis, IN

Home | Current Version | Previous Version | Text Only | Print | Product List | Glossary On
Versions: 1 2 3 4 5 6 7 8 9 10 11 12 13 14 15 16 17 18 19 20 21 22 23 24 25 26 27 28
000
FTUS43 KIND 011200 AAA
TAFIND
TAF AMD
KIND 011241Z 0113/0218 VRB03KT 1/4SM +SN VV008
     FM011400 VRB03KT 1SM -SN BR OVC012
      TEMPO 0114/0116 1/2SM SN FZFG OVC008
     FM011600 31004KT 2SM -SN BR OVC007
     FM011900 29007KT 2SM BR VCSH OVC015
     FM020000 29009KT 5SM BR BKN020
     FM020700 31006KT P6SM SCT025 SCT250=

USA.gov is the U.S. government's official web portal to all federal, state and local government web resources and services.